»·PEaware :: SWA863 KPDX-KRNO

SWA863 :: KPDX-KRNO

FLIGHT INFORMATION

Flight Status: Arrived
Operator:
Southwest Airlines
More flights by this operator :: More flights under this callsign
Pilot: Chandler S. (807)
Aircraft: BOEING 737-700
(B737)
More flights by this aircraft type
Origin: KPDX Portland Intl
United States
Destination: KRNO Reno/Tahoe Intl
United States
More flights between these airports :: More routes between these airports
Route: CASCD2 PAWLI BAARB J5 HARTT EELZA2
File this flight plan on PilotEdge
Remarks:
Altitude:
(Current/Filed)
35,000ft
Speed:
(Current/Filed)
400kts
Departed: 10-Jul-20 04:57 PM
Arrived: 10-Jul-20 06:01 PM
Distance/Time
Traveled:
386nm/1:04
Distance/Time
To Go:
Arrived

Flight Plot

Page will automatically refresh every two minutes.


Map Options




Map Legend


Flown Route
Filed Route
Departure Airport
Arrival Airport
Navaid (VOR, NDB)
Fix

Horizontal Profiles

Position Reports

Time Latitude Longitude Heading Altitude Ground
Speed
10-Jul-20 16:19 45.590436 -122.598938 208 30ft 0kts
10-Jul-20 16:20 45.590436 -122.598938 208 30ft 0kts
10-Jul-20 16:21 45.590436 -122.598938 208 30ft 0kts
10-Jul-20 16:22 45.590436 -122.598938 208 30ft 0kts
10-Jul-20 16:23 45.590436 -122.598938 208 30ft 0kts
10-Jul-20 16:24 45.590436 -122.598938 208 30ft 0kts
10-Jul-20 16:25 45.590436 -122.598938 208 30ft 0kts
10-Jul-20 16:26 45.590436 -122.598938 208 30ft 0kts
10-Jul-20 16:27 45.590436 -122.598938 208 30ft 0kts
10-Jul-20 16:28 45.590436 -122.598938 208 30ft 0kts
10-Jul-20 16:30 45.590436 -122.598938 208 30ft 0kts
10-Jul-20 16:31 45.590436 -122.598938 208 30ft 0kts
10-Jul-20 16:32 45.590436 -122.598938 208 30ft 0kts
10-Jul-20 16:33 45.590436 -122.598938 208 30ft 0kts
10-Jul-20 16:34 45.590436 -122.598938 208 30ft 0kts
10-Jul-20 16:35 45.590436 -122.598938 208 30ft 0kts
10-Jul-20 16:36 45.590436 -122.598938 208 30ft 0kts
10-Jul-20 16:37 45.590436 -122.598938 208 30ft 0kts
10-Jul-20 16:38 45.590436 -122.598938 208 30ft 0kts
10-Jul-20 16:39 45.590436 -122.598938 208 30ft 0kts
10-Jul-20 16:40 45.590436 -122.598938 208 30ft 0kts
10-Jul-20 16:41 45.590436 -122.598938 208 30ft 0kts
10-Jul-20 16:42 45.590436 -122.598938 208 30ft 0kts
10-Jul-20 16:43 45.590436 -122.598938 208 30ft 0kts
10-Jul-20 16:44 45.590436 -122.598938 208 30ft 0kts
10-Jul-20 16:45 45.590437 -122.598938 208 30ft 0kts
10-Jul-20 16:46 45.590813 -122.598456 248 30ft 2kts
10-Jul-20 16:47 45.590776 -122.597762 300 30ft 1kts
10-Jul-20 16:47 45.590767 -122.597740 299 30ft 0kts
10-Jul-20 16:49 45.590767 -122.597740 299 30ft 0kts
10-Jul-20 16:49 45.590767 -122.597740 299 30ft 0kts
10-Jul-20 16:50 45.591457 -122.598993 349 30ft 9kts
10-Jul-20 16:52 45.591151 -122.589482 118 30ft 29kts
10-Jul-20 16:52 45.587356 -122.579942 115 30ft 32kts
10-Jul-20 16:53 45.583455 -122.569748 118 30ft 21kts
10-Jul-20 16:54 45.582718 -122.567405 63 30ft 0kts
10-Jul-20 16:55 45.582790 -122.567208 58 30ft 9kts
10-Jul-20 16:56 45.599631 -122.608076 296 1062ft 242kts
10-Jul-20 16:57 45.627402 -122.696896 297 4325ft 248kts
10-Jul-20 16:58 45.661402 -122.782999 290 7948ft 260kts
10-Jul-20 16:59 45.656797 -122.887837 232 11604ft 289kts
10-Jul-20 17:00 45.581621 -122.911778 164 15298ft 309kts
10-Jul-20 17:01 45.509230 -122.844133 136 18667ft 327kts
10-Jul-20 17:02 45.446602 -122.746517 136 21452ft 342kts
10-Jul-20 17:03 45.379836 -122.643790 136 23216ft 379kts
10-Jul-20 17:04 45.306966 -122.531274 136 25457ft 394kts
10-Jul-20 17:05 45.232868 -122.416796 136 27910ft 395kts
10-Jul-20 17:06 45.157756 -122.300616 136 29773ft 405kts
10-Jul-20 17:07 45.079280 -122.188056 146 31853ft 402kts
10-Jul-20 17:08 44.986351 -122.102750 160 33629ft 397kts
10-Jul-20 17:09 44.886440 -122.038066 161 35172ft 402kts
10-Jul-20 17:10 44.778311 -121.968127 160 35203ft 454kts
10-Jul-20 17:11 44.659104 -121.890868 160 35193ft 478kts
10-Jul-20 17:12 44.538677 -121.812887 160 35194ft 479kts
10-Jul-20 17:13 44.418409 -121.734957 160 35200ft 478kts
10-Jul-20 17:14 44.297599 -121.656528 161 35188ft 474kts
10-Jul-20 17:15 44.177755 -121.578972 161 35195ft 476kts
10-Jul-20 17:16 44.057933 -121.501226 161 35193ft 476kts
10-Jul-20 17:17 43.938152 -121.423464 161 35190ft 475kts
10-Jul-20 17:18 43.820839 -121.347285 161 35199ft 476kts
10-Jul-20 17:19 43.704307 -121.271633 161 35193ft 477kts
10-Jul-20 17:20 43.585788 -121.194592 161 35189ft 476kts
10-Jul-20 17:21 43.466141 -121.116794 161 35192ft 477kts
10-Jul-20 17:22 43.346015 -121.038626 161 35190ft 477kts
10-Jul-20 17:23 43.225936 -120.960481 161 35187ft 480kts
10-Jul-20 17:24 43.102366 -120.898797 170 35212ft 471kts
10-Jul-20 17:25 42.977413 -120.848351 171 35235ft 468kts
10-Jul-20 17:26 42.856883 -120.799751 172 35243ft 463kts
10-Jul-20 17:27 42.732680 -120.749689 172 35243ft 464kts
10-Jul-20 17:28 42.609554 -120.700034 172 35242ft 465kts
10-Jul-20 17:29 42.485975 -120.650187 172 35243ft 465kts
10-Jul-20 17:30 42.361886 -120.600113 172 35242ft 465kts
10-Jul-20 17:31 42.238079 -120.550149 172 35241ft 465kts
10-Jul-20 17:32 42.114445 -120.500239 172 35241ft 465kts
10-Jul-20 17:33 41.990851 -120.450344 171 35241ft 465kts
10-Jul-20 17:34 41.866991 -120.400313 171 35240ft 465kts
10-Jul-20 17:35 41.742606 -120.350080 171 35212ft 466kts
10-Jul-20 17:36 41.619388 -120.300340 172 35198ft 465kts
10-Jul-20 17:37 41.495821 -120.250396 172 35197ft 465kts
10-Jul-20 17:38 41.372047 -120.200367 172 35197ft 464kts
10-Jul-20 17:39 41.248339 -120.150367 172 35197ft 465kts
10-Jul-20 17:40 41.124557 -120.104071 176 35197ft 459kts
10-Jul-20 17:41 41.000409 -120.068491 175 35196ft 456kts
10-Jul-20 17:42 40.882253 -120.034574 174 35202ft 455kts
10-Jul-20 17:43 40.758555 -119.996523 173 35203ft 457kts
10-Jul-20 17:44 40.634604 -119.956424 173 35203ft 457kts
10-Jul-20 17:45 40.511002 -119.916660 173 35202ft 457kts
10-Jul-20 17:46 40.387918 -119.877107 173 35212ft 457kts
10-Jul-20 17:47 40.264906 -119.837952 173 33378ft 445kts
10-Jul-20 17:48 40.149476 -119.801278 173 30874ft 419kts
10-Jul-20 17:49 40.039200 -119.759081 164 28162ft 407kts
10-Jul-20 17:50 39.936535 -119.705350 167 25155ft 390kts
10-Jul-20 17:51 39.835663 -119.678714 180 22219ft 368kts
10-Jul-20 17:52 39.735099 -119.673427 182 18847ft 354kts
10-Jul-20 17:53 39.638804 -119.667218 178 15453ft 342kts
10-Jul-20 17:54 39.545901 -119.657532 177 12104ft 328kts
10-Jul-20 17:55 39.460734 -119.654042 180 10116ft 290kts
10-Jul-20 17:56 39.395576 -119.689718 247 9362ft 255kts
10-Jul-20 17:57 39.409070 -119.762721 343 7167ft 228kts
10-Jul-20 17:58 39.462376 -119.766797 359 5172ft 179kts
10-Jul-20 17:59 39.504458 -119.766775 359 4423ft 64kts
10-Jul-20 18:00 39.510817 -119.768845 298 4423ft 18kts
10-Jul-20 18:01 39.508011 -119.771502 181 4423ft 21kts
10-Jul-20 18:02 39.503902 -119.773690 342 4423ft 5kts
10-Jul-20 18:03 39.504383 -119.773735 358 4423ft 0kts

Navigation Log

Ident Type
Flight plan parsing failed, navigation log unavailable